sensor_id;sensor_type;location;lat;lon;timestamp;pressure;altitude;pressure_sealevel;temperature;humidity
70458;BME280;57919;56.194;95.716;2023-02-01T00:09:35;100465.47;;;-16.38;64.89
70458;BME280;57919;56.194;95.716;2023-02-01T00:19:37;100481.78;;;-16.41;64.41
70458;BME280;57919;56.194;95.716;2023-02-01T00:29:39;100484.31;;;-16.64;63.97
70458;BME280;57919;56.194;95.716;2023-02-01T00:39:41;100481.81;;;-16.84;64.45
70458;BME280;57919;56.194;95.716;2023-02-01T00:49:43;100495.13;;;-16.75;64.91
70458;BME280;57919;56.194;95.716;2023-02-01T00:59:45;100472.97;;;-16.89;64.68
70458;BME280;57919;56.194;95.716;2023-02-01T01:09:47;100471.41;;;-17.06;64.56
70458;BME280;57919;56.194;95.716;2023-02-01T01:19:49;100470.97;;;-17.17;64.63
70458;BME280;57919;56.194;95.716;2023-02-01T01:29:51;100482.13;;;-17.18;64.18
70458;BME280;57919;56.194;95.716;2023-02-01T01:39:53;100500.59;;;-17.29;64.65
70458;BME280;57919;56.194;95.716;2023-02-01T01:49:57;100508.63;;;-17.43;64.56
70458;BME280;57919;56.194;95.716;2023-02-01T02:00:05;100499.91;;;-17.05;66.50
70458;BME280;57919;56.194;95.716;2023-02-01T02:10:16;100513.66;;;-17.06;64.61
70458;BME280;57919;56.194;95.716;2023-02-01T02:41:18;100528.00;;;-16.50;64.66
70458;BME280;57919;56.194;95.716;2023-02-01T02:51:44;100508.44;;;-15.98;65.21
70458;BME280;57919;56.194;95.716;2023-02-01T03:02:07;100532.22;;;-15.15;63.62
70458;BME280;57919;56.194;95.716;2023-02-01T03:12:36;100531.13;;;-14.45;63.22
70458;BME280;57919;56.194;95.716;2023-02-01T03:22:57;100520.09;;;-13.81;62.11
70458;BME280;57919;56.194;95.716;2023-02-01T03:33:03;100515.47;;;-13.31;61.50
70458;BME280;57919;56.194;95.716;2023-02-01T03:43:11;100515.06;;;-12.81;61.08
70458;BME280;57919;56.194;95.716;2023-02-01T03:53:20;100513.41;;;-12.44;60.55
70458;BME280;57919;56.194;95.716;2023-02-01T04:03:26;100484.34;;;-12.23;60.20
70458;BME280;57919;56.194;95.716;2023-02-01T04:13:28;100520.50;;;-12.01;59.83
70458;BME280;57919;56.194;95.716;2023-02-01T04:23:30;100481.75;;;-12.23;59.69
70458;BME280;57919;56.194;95.716;2023-02-01T04:33:33;100507.06;;;-11.80;58.79
70458;BME280;57919;56.194;95.716;2023-02-01T04:43:35;100520.66;;;-11.95;58.48
70458;BME280;57919;56.194;95.716;2023-02-01T04:53:36;100518.13;;;-12.28;59.06
70458;BME280;57919;56.194;95.716;2023-02-01T05:03:38;100511.69;;;-12.06;57.48
70458;BME280;57919;56.194;95.716;2023-02-01T05:13:40;100482.03;;;-12.11;58.04
70458;BME280;57919;56.194;95.716;2023-02-01T05:23:51;100479.66;;;-12.00;55.68
70458;BME280;57919;56.194;95.716;2023-02-01T05:34:11;100503.69;;;-12.50;56.51
70458;BME280;57919;56.194;95.716;2023-02-01T05:44:13;100496.91;;;-12.43;56.79
70458;BME280;57919;56.194;95.716;2023-02-01T05:54:15;100493.69;;;-12.33;57.80
70458;BME280;57919;56.194;95.716;2023-02-01T06:04:17;100486.78;;;-11.93;57.32
70458;BME280;57919;56.194;95.716;2023-02-01T06:14:19;100491.66;;;-11.66;56.58
70458;BME280;57919;56.194;95.716;2023-02-01T06:24:21;100486.00;;;-11.46;57.67
70458;BME280;57919;56.194;95.716;2023-02-01T06:34:23;100477.78;;;-10.75;57.83
70458;BME280;57919;56.194;95.716;2023-02-01T06:44:25;100479.72;;;-10.63;55.36
70458;BME280;57919;56.194;95.716;2023-02-01T06:54:27;100432.41;;;-10.79;56.96
70458;BME280;57919;56.194;95.716;2023-02-01T07:04:29;100469.66;;;-10.39;56.91
70458;BME280;57919;56.194;95.716;2023-02-01T07:14:32;100465.66;;;-10.13;56.71
70458;BME280;57919;56.194;95.716;2023-02-01T07:24:34;100465.59;;;-10.20;57.42
70458;BME280;57919;56.194;95.716;2023-02-01T07:34:36;100455.13;;;-10.19;57.67
70458;BME280;57919;56.194;95.716;2023-02-01T07:44:38;100466.00;;;-9.88;57.31
70458;BME280;57919;56.194;95.716;2023-02-01T07:54:39;100439.47;;;-10.14;56.68
70458;BME280;57919;56.194;95.716;2023-02-01T08:04:41;100447.66;;;-9.91;57.25
70458;BME280;57919;56.194;95.716;2023-02-01T08:14:43;100431.09;;;-9.90;57.37
70458;BME280;57919;56.194;95.716;2023-02-01T08:24:47;100466.34;;;-9.64;57.09
70458;BME280;57919;56.194;95.716;2023-02-01T08:34:49;100450.69;;;-9.59;57.03
70458;BME280;57919;56.194;95.716;2023-02-01T08:44:52;100454.19;;;-9.59;57.63
70458;BME280;57919;56.194;95.716;2023-02-01T08:54:53;100441.88;;;-9.66;57.52
70458;BME280;57919;56.194;95.716;2023-02-01T09:04:55;100456.91;;;-9.50;58.16
70458;BME280;57919;56.194;95.716;2023-02-01T09:14:58;100463.69;;;-9.67;57.73
70458;BME280;57919;56.194;95.716;2023-02-01T09:25:01;100458.53;;;-10.26;57.66
70458;BME280;57919;56.194;95.716;2023-02-01T09:35:03;100439.44;;;-10.74;57.72
70458;BME280;57919;56.194;95.716;2023-02-01T09:45:27;100482.44;;;-11.05;58.30
70458;BME280;57919;56.194;95.716;2023-02-01T09:55:43;100506.41;;;-11.26;58.29
70458;BME280;57919;56.194;95.716;2023-02-01T10:06:10;100506.50;;;-11.64;58.50
70458;BME280;57919;56.194;95.716;2023-02-01T10:16:56;100520.47;;;-12.02;58.35
70458;BME280;57919;56.194;95.716;2023-02-01T10:27:12;100526.63;;;-12.36;58.33
70458;BME280;57919;56.194;95.716;2023-02-01T10:37:27;100537.28;;;-12.62;58.38
70458;BME280;57919;56.194;95.716;2023-02-01T10:47:30;100517.91;;;-13.04;58.98
70458;BME280;57919;56.194;95.716;2023-02-01T10:57:32;100540.16;;;-13.17;59.16
70458;BME280;57919;56.194;95.716;2023-02-01T11:07:34;100527.41;;;-13.40;58.85
70458;BME280;57919;56.194;95.716;2023-02-01T11:17:40;100546.03;;;-13.54;58.83
70458;BME280;57919;56.194;95.716;2023-02-01T11:27:43;100531.06;;;-13.91;59.02
70458;BME280;57919;56.194;95.716;2023-02-01T11:37:55;100526.03;;;-14.14;59.48
70458;BME280;57919;56.194;95.716;2023-02-01T11:48:00;100554.44;;;-14.20;59.75
70458;BME280;57919;56.194;95.716;2023-02-01T12:08:39;100521.03;;;-15.38;60.01
70458;BME280;57919;56.194;95.716;2023-02-01T12:50:45;100566.72;;;-15.65;59.92
70458;BME280;57919;56.194;95.716;2023-02-01T13:01:05;100613.22;;;-15.70;60.55
70458;BME280;57919;56.194;95.716;2023-02-01T13:11:18;100618.34;;;-15.93;60.20
70458;BME280;57919;56.194;95.716;2023-02-01T13:21:29;100619.94;;;-16.18;60.91
70458;BME280;57919;56.194;95.716;2023-02-01T13:31:52;100619.69;;;-16.24;61.58
70458;BME280;57919;56.194;95.716;2023-02-01T13:42:04;100615.97;;;-16.30;60.97
70458;BME280;57919;56.194;95.716;2023-02-01T13:52:23;100601.44;;;-16.48;60.84
70458;BME280;57919;56.194;95.716;2023-02-01T14:12:47;100614.53;;;-16.65;61.39
70458;BME280;57919;56.194;95.716;2023-02-01T14:22:50;100615.91;;;-16.53;61.55
70458;BME280;57919;56.194;95.716;2023-02-01T14:32:53;100629.28;;;-16.21;61.41
70458;BME280;57919;56.194;95.716;2023-02-01T14:42:55;100627.13;;;-16.11;61.82
70458;BME280;57919;56.194;95.716;2023-02-01T14:53:08;100629.75;;;-15.88;62.13
70458;BME280;57919;56.194;95.716;2023-02-01T15:03:40;100618.22;;;-15.28;62.85
70458;BME280;57919;56.194;95.716;2023-02-01T15:13:52;100616.66;;;-15.47;61.96
70458;BME280;57919;56.194;95.716;2023-02-01T15:24:34;100619.34;;;-15.21;62.03
70458;BME280;57919;56.194;95.716;2023-02-01T15:34:45;100617.22;;;-15.31;62.18
70458;BME280;57919;56.194;95.716;2023-02-01T15:44:49;100603.81;;;-15.44;62.98
70458;BME280;57919;56.194;95.716;2023-02-01T15:54:56;100622.38;;;-15.55;63.40
70458;BME280;57919;56.194;95.716;2023-02-01T16:05:01;100632.97;;;-15.49;64.10
70458;BME280;57919;56.194;95.716;2023-02-01T16:15:05;100648.28;;;-15.57;63.42
70458;BME280;57919;56.194;95.716;2023-02-01T16:25:07;100635.97;;;-15.16;62.78
70458;BME280;57919;56.194;95.716;2023-02-01T16:35:36;100629.72;;;-14.97;62.68
70458;BME280;57919;56.194;95.716;2023-02-01T16:45:38;100598.16;;;-15.10;62.90
70458;BME280;57919;56.194;95.716;2023-02-01T16:55:41;100633.19;;;-15.21;62.55
70458;BME280;57919;56.194;95.716;2023-02-01T17:05:55;100628.38;;;-15.34;62.50
70458;BME280;57919;56.194;95.716;2023-02-01T17:16:18;100650.59;;;-15.18;62.79
70458;BME280;57919;56.194;95.716;2023-02-01T17:26:22;100651.56;;;-15.15;61.93
70458;BME280;57919;56.194;95.716;2023-02-01T17:36:28;100620.88;;;-15.26;62.20
70458;BME280;57919;56.194;95.716;2023-02-01T17:46:31;100636.84;;;-15.16;62.52
70458;BME280;57919;56.194;95.716;2023-02-01T17:56:33;100655.44;;;-15.04;62.41
70458;BME280;57919;56.194;95.716;2023-02-01T18:06:35;100632.88;;;-15.06;62.36
70458;BME280;57919;56.194;95.716;2023-02-01T18:16:37;100614.09;;;-15.23;62.97
70458;BME280;57919;56.194;95.716;2023-02-01T18:26:40;100670.63;;;-15.14;62.93
70458;BME280;57919;56.194;95.716;2023-02-01T18:36:42;100669.81;;;-15.13;62.85
70458;BME280;57919;56.194;95.716;2023-02-01T18:46:44;100631.56;;;-15.41;63.17
70458;BME280;57919;56.194;95.716;2023-02-01T18:56:46;100665.88;;;-15.02;63.06
70458;BME280;57919;56.194;95.716;2023-02-01T19:06:48;100632.66;;;-15.12;62.86
70458;BME280;57919;56.194;95.716;2023-02-01T19:16:50;100667.38;;;-14.85;62.57
70458;BME280;57919;56.194;95.716;2023-02-01T19:26:52;100671.47;;;-14.91;62.66
70458;BME280;57919;56.194;95.716;2023-02-01T19:36:54;100651.53;;;-15.16;62.63
70458;BME280;57919;56.194;95.716;2023-02-01T19:46:56;100678.06;;;-15.23;61.99
70458;BME280;57919;56.194;95.716;2023-02-01T19:56:58;100662.56;;;-15.44;62.37
70458;BME280;57919;56.194;95.716;2023-02-01T20:07:00;100675.34;;;-15.49;62.38
70458;BME280;57919;56.194;95.716;2023-02-01T20:17:01;100688.69;;;-15.40;62.56
70458;BME280;57919;56.194;95.716;2023-02-01T20:27:04;100671.16;;;-15.45;62.47
70458;BME280;57919;56.194;95.716;2023-02-01T20:37:06;100669.84;;;-15.58;62.86
70458;BME280;57919;56.194;95.716;2023-02-01T20:47:08;100680.91;;;-15.62;62.84
70458;BME280;57919;56.194;95.716;2023-02-01T20:57:10;100674.38;;;-15.75;62.20
70458;BME280;57919;56.194;95.716;2023-02-01T21:07:12;100667.00;;;-16.07;62.73
70458;BME280;57919;56.194;95.716;2023-02-01T21:17:14;100679.69;;;-16.34;62.24
70458;BME280;57919;56.194;95.716;2023-02-01T21:27:16;100689.13;;;-16.55;62.34
70458;BME280;57919;56.194;95.716;2023-02-01T21:37:18;100698.38;;;-16.81;62.31
70458;BME280;57919;56.194;95.716;2023-02-01T21:47:25;100703.56;;;-17.01;61.94
70458;BME280;57919;56.194;95.716;2023-02-01T21:58:59;100696.38;;;-17.25;62.05
70458;BME280;57919;56.194;95.716;2023-02-01T22:09:01;100671.72;;;-17.56;62.53
70458;BME280;57919;56.194;95.716;2023-02-01T22:19:03;100712.69;;;-17.46;62.21
70458;BME280;57919;56.194;95.716;2023-02-01T22:29:06;100679.66;;;-17.71;62.35
70458;BME280;57919;56.194;95.716;2023-02-01T22:39:09;100714.31;;;-17.48;63.07
70458;BME280;57919;56.194;95.716;2023-02-01T22:49:11;100674.88;;;-17.44;63.24
70458;BME280;57919;56.194;95.716;2023-02-01T22:59:14;100692.63;;;-17.32;62.44
70458;BME280;57919;56.194;95.716;2023-02-01T23:09:19;100716.13;;;-17.27;62.60
70458;BME280;57919;56.194;95.716;2023-02-01T23:19:22;100708.50;;;-17.24;63.04
70458;BME280;57919;56.194;95.716;2023-02-01T23:29:23;100699.38;;;-17.36;63.07
70458;BME280;57919;56.194;95.716;2023-02-01T23:39:25;100717.31;;;-17.39;63.09
70458;BME280;57919;56.194;95.716;2023-02-01T23:49:27;100719.69;;;-17.43;62.56
70458;BME280;57919;56.194;95.716;2023-02-01T23:59:29;100730.31;;;-17.37;63.06
